Key West International Airport Key West US
ICAO: KEYW
IATA: EYW
Category: Medium
Scheduled Services: Yes

Elevation: 3 ft
TransAlt. 18000 ft.

Airport Communications:
NAVY KEY WEST:124.45
ASOS:119.65
ATIS:119.675
CLNC DEL:121.9
CTAF:118.2
MIAMI RDO:122.2
GND:121.9
TWR:118.2
UNICOM:122.95

KEYW Zoom In..

Runways:

(A) RW 09 length 4801 ft width 100 ft
---- / hdg 93

(B) RW 27 length 4801 ft width 100 ft
---- / hdg 273

Location; KEYW
Day. 23 / Time. 09.53 Zulu
* Altimeter: 29.91
* Temperature: 27° c. 80.6°f.
* Wind from: 000° Speed 00 kn.
Dewpoint: 23° c.
Visibility: 10 Statute Miles.
Clouds: Few 2200 ft.

KEYW 230953Z AUTO 00000KT 10SM FEW022 27/23 A2991 RMK AO2 LTG DSNT W RAB03E14B43E53 TSE09 SLP128 P0000 T02720228


Wind - Calm.

 
 
jpsmedia.com for Web Design worldairports.se 2018   terms of use